Terminal Aerodrome Forecast
Issued by NWS

Current Version | Previous Version | Text Only | Print | Product List | Glossary On
Versions: 1 2 3 4 5 6 7 8 9 10 11 12 13 14 15 16 17 18
801
FTUS43 KIWX 252339
TAFSBN
TAF
KSBN 252339Z 2600/2624 31008KT P6SM SCT015
     FM260400 29006KT 4SM BR SCT015
     FM260700 29005KT 2SM BR BKN008
      TEMPO 2607/2611 1SM BR SCT004 OVC008
     FM261200 VRB03KT 2SM BR BKN010
     FM261400 VRB03KT P6SM BKN035
     FM262000 15006KT P6SM FEW030 BKN070=

USA.gov is the U.S. government's official web portal to all federal, state and local government web resources and services.